Impacts METAR Board INFO
IDs:

KSTL - St Louis/Lambert Int, MO, US

Updated at: 1434 UTC 18 Dec 2017
Potential Impact None Slight Moderate High
Time18/02Z 18/03Z 18/04Z 18/05Z 18/06Z 18/07Z 18/08Z 18/09Z 18/10Z 18/11Z 18/12Z 18/13Z 18/14Z
VIS10 10 10 10 10 10 10 10 10 10 10 10 10
CIG28 17 16 24 25 25 20 22 20 24 26 27 32
CoverOVCOVCOVCOVCOVCOVCOVCOVCOVCOVCOVCOVCOVC
FltCatMVFRMVFRMVFRMVFRMVFRMVFRMVFRMVFRMVFRMVFRMVFRMVFRVFR
WX---DZ---DZ-----DZ-----DZ-DZ-DZ--
WDir230230270240240250250260260240250260250
WSpd8 6 5 7 9 11 8 5 6 8 6 7 8
WGst-- -- -- -- -- -- -- -- -- -- -- -- --
Raw hourly METARs
KSTL 180151Z 23008KT 10SM OVC028 09/06 A3007 RMK AO2 SLP184 T00940061
KSTL 180251Z 23006KT 10SM -DZ OVC017 09/07 A3007 RMK AO2 DZB41 SLP186 P0000 60000 T00890067 53006
KSTL 180351Z 27005KT 10SM BKN016 OVC023 09/07 A3006 RMK AO2 DZE51 SLP183 P0000 T00890072
KSTL 180451Z 24007KT 10SM -DZ SCT015 OVC024 08/07 A3007 RMK AO2 DZB38 SLP185 P0000 T00830072
KSTL 180551Z 24009KT 10SM FEW018 OVC025 08/07 A3006 RMK AO2 DZE50 SLP182 P0000 60000 T00830067 10100 20083 401280056 56002
KSTL 180651Z 25011KT 10SM FEW018 OVC025 09/06 A3006 RMK AO2 SLP182 T00890061
KSTL 180751Z 25008KT 10SM -DZ OVC020 09/06 A3007 RMK AO2 DZB48 SLP184 P0000 T00890056
KSTL 180851Z 26005KT 10SM OVC022 08/06 A3006 RMK AO2 DZE51 SLP180 P0000 60000 T00830056 58001
KSTL 180951Z 26006KT 10SM FEW015 OVC020 08/06 A3006 RMK AO2 SLP180 T00830056
KSTL 181051Z 24008KT 10SM -DZ FEW015 OVC024 08/06 A3007 RMK AO2 DZB50 SLP184 P0000 T00830061
KSTL 181151Z 25006KT 10SM -DZ FEW017 OVC026 08/06 A3007 RMK AO2 SLP186 P0000 60000 T00780061 10089 20078 53003
KSTL 181251Z 26007KT 10SM -DZ FEW017 OVC027 08/06 A3008 RMK AO2 SLP187 P0000 T00780061
KSTL 181351Z 25008KT 10SM SCT017 OVC032 08/06 A3009 RMK AO2 DZE1259 SLP190 P0000 T00830061